sensor_id;sensor_type;location;lat;lon;timestamp;pressure;altitude;pressure_sealevel;temperature;humidity
12949;BME280;6539;49.476;8.484;2023-02-15T00:00:07;102087.63;;;5.05;81.72
12949;BME280;6539;49.476;8.484;2023-02-15T00:02:36;102086.84;;;5.05;81.68
12949;BME280;6539;49.476;8.484;2023-02-15T00:05:02;102086.66;;;5.10;81.56
12949;BME280;6539;49.476;8.484;2023-02-15T00:07:28;102085.09;;;5.09;81.79
12949;BME280;6539;49.476;8.484;2023-02-15T00:09:54;102079.94;;;5.07;81.88
12949;BME280;6539;49.476;8.484;2023-02-15T00:12:19;102083.81;;;5.06;81.62
12949;BME280;6539;49.476;8.484;2023-02-15T00:14:48;102078.06;;;4.99;81.85
12949;BME280;6539;49.476;8.484;2023-02-15T00:17:13;102086.56;;;4.98;82.07
12949;BME280;6539;49.476;8.484;2023-02-15T00:19:39;102086.69;;;5.01;82.21
12949;BME280;6539;49.476;8.484;2023-02-15T00:22:08;102076.63;;;5.02;81.94
12949;BME280;6539;49.476;8.484;2023-02-15T00:24:33;102074.38;;;5.04;82.22
12949;BME280;6539;49.476;8.484;2023-02-15T00:26:59;102074.22;;;5.00;82.01
12949;BME280;6539;49.476;8.484;2023-02-15T00:29:25;102069.56;;;5.01;82.53
12949;BME280;6539;49.476;8.484;2023-02-15T00:31:55;102073.09;;;5.01;82.21
12949;BME280;6539;49.476;8.484;2023-02-15T00:34:26;102074.38;;;5.04;82.44
12949;BME280;6539;49.476;8.484;2023-02-15T00:36:53;102073.69;;;5.07;82.17
12949;BME280;6539;49.476;8.484;2023-02-15T00:39:21;102063.63;;;5.07;81.84
12949;BME280;6539;49.476;8.484;2023-02-15T00:41:47;102063.00;;;5.02;81.79
12949;BME280;6539;49.476;8.484;2023-02-15T00:44:15;102059.34;;;4.98;82.44
12949;BME280;6539;49.476;8.484;2023-02-15T00:46:42;102066.25;;;4.95;82.62
12949;BME280;6539;49.476;8.484;2023-02-15T00:49:10;102057.91;;;4.92;82.73
12949;BME280;6539;49.476;8.484;2023-02-15T00:51:36;102059.34;;;4.98;83.08
12949;BME280;6539;49.476;8.484;2023-02-15T00:54:07;102064.78;;;4.98;82.49
12949;BME280;6539;49.476;8.484;2023-02-15T00:56:35;102063.19;;;4.97;82.48
12949;BME280;6539;49.476;8.484;2023-02-15T00:59:01;102056.63;;;4.98;82.63
12949;BME280;6539;49.476;8.484;2023-02-15T01:01:29;102064.13;;;5.01;82.32
12949;BME280;6539;49.476;8.484;2023-02-15T01:03:59;102054.69;;;4.98;82.22
12949;BME280;6539;49.476;8.484;2023-02-15T01:06:25;102055.19;;;4.92;82.46
12949;BME280;6539;49.476;8.484;2023-02-15T01:08:51;102061.78;;;4.91;82.14
12949;BME280;6539;49.476;8.484;2023-02-15T01:11:21;102064.97;;;4.93;82.47
12949;BME280;6539;49.476;8.484;2023-02-15T01:13:56;102064.63;;;4.94;82.37
12949;BME280;6539;49.476;8.484;2023-02-15T01:16:25;102063.03;;;4.93;82.47
12949;BME280;6539;49.476;8.484;2023-02-15T01:18:53;102064.63;;;4.94;82.66
12949;BME280;6539;49.476;8.484;2023-02-15T01:21:23;102054.56;;;4.86;82.58
12949;BME280;6539;49.476;8.484;2023-02-15T01:23:49;102055.38;;;4.87;82.52
12949;BME280;6539;49.476;8.484;2023-02-15T01:26:16;102053.00;;;4.85;83.11
12949;BME280;6539;49.476;8.484;2023-02-15T01:28:47;102062.88;;;4.90;82.60
12949;BME280;6539;49.476;8.484;2023-02-15T01:31:20;102053.59;;;4.91;82.92
12949;BME280;6539;49.476;8.484;2023-02-15T01:33:47;102050.75;;;4.87;82.78
12949;BME280;6539;49.476;8.484;2023-02-15T01:36:13;102041.09;;;4.90;82.97
12949;BME280;6539;49.476;8.484;2023-02-15T01:38:42;102043.66;;;4.95;82.34
12949;BME280;6539;49.476;8.484;2023-02-15T01:41:08;102047.66;;;4.97;82.25
12949;BME280;6539;49.476;8.484;2023-02-15T01:43:57;102035.97;;;4.97;82.28
12949;BME280;6539;49.476;8.484;2023-02-15T01:46:35;102043.66;;;4.95;82.12
12949;BME280;6539;49.476;8.484;2023-02-15T01:49:15;102036.63;;;4.94;82.18
12949;BME280;6539;49.476;8.484;2023-02-15T01:51:44;102037.28;;;4.91;82.40
12949;BME280;6539;49.476;8.484;2023-02-15T01:54:21;102039.81;;;4.96;82.32
12949;BME280;6539;49.476;8.484;2023-02-15T01:56:54;102042.09;;;4.94;82.67
12949;BME280;6539;49.476;8.484;2023-02-15T01:59:25;102044.13;;;4.97;82.77
12949;BME280;6539;49.476;8.484;2023-02-15T02:01:57;102035.03;;;4.93;81.96
12949;BME280;6539;49.476;8.484;2023-02-15T02:04:38;102035.53;;;4.86;82.23
12949;BME280;6539;49.476;8.484;2023-02-15T02:07:09;102032.00;;;4.86;83.16
12949;BME280;6539;49.476;8.484;2023-02-15T02:09:40;102028.34;;;4.82;82.98
12949;BME280;6539;49.476;8.484;2023-02-15T02:12:09;102029.16;;;4.82;82.97
12949;BME280;6539;49.476;8.484;2023-02-15T02:14:36;102026.94;;;4.76;83.31
12949;BME280;6539;49.476;8.484;2023-02-15T02:21:02;102020.84;;;4.79;83.53
12949;BME280;6539;49.476;8.484;2023-02-15T02:24:12;102021.97;;;4.78;83.64
12949;BME280;6539;49.476;8.484;2023-02-15T02:32:51;102007.59;;;4.69;83.91
12949;BME280;6539;49.476;8.484;2023-02-15T02:35:31;101999.25;;;4.74;84.67
12949;BME280;6539;49.476;8.484;2023-02-15T02:44:41;102000.34;;;4.81;84.47
12949;BME280;6539;49.476;8.484;2023-02-15T02:47:30;102000.00;;;4.91;83.95
12949;BME280;6539;49.476;8.484;2023-02-15T02:50:15;101996.81;;;4.89;83.65
12949;BME280;6539;49.476;8.484;2023-02-15T02:52:50;101992.94;;;4.90;83.81
12949;BME280;6539;49.476;8.484;2023-02-15T02:58:10;101993.78;;;4.82;83.00
12949;BME280;6539;49.476;8.484;2023-02-15T03:00:45;101988.50;;;4.77;83.16
12949;BME280;6539;49.476;8.484;2023-02-15T03:03:29;101982.13;;;4.73;83.55
12949;BME280;6539;49.476;8.484;2023-02-15T03:06:04;101978.63;;;4.73;83.31
12949;BME280;6539;49.476;8.484;2023-02-15T03:08:48;101977.78;;;4.81;82.42
12949;BME280;6539;49.476;8.484;2023-02-15T03:11:21;101981.28;;;4.81;82.10
12949;BME280;6539;49.476;8.484;2023-02-15T03:13:48;101977.78;;;4.81;82.14
12949;BME280;6539;49.476;8.484;2023-02-15T03:16:18;101982.56;;;4.84;81.55
12949;BME280;6539;49.476;8.484;2023-02-15T03:19:09;101977.78;;;4.81;81.30
12949;BME280;6539;49.476;8.484;2023-02-15T03:21:45;101975.84;;;4.81;80.91
12949;BME280;6539;49.476;8.484;2023-02-15T03:24:32;101978.16;;;4.71;80.93
12949;BME280;6539;49.476;8.484;2023-02-15T03:27:10;101985.22;;;4.63;81.48
12949;BME280;6539;49.476;8.484;2023-02-15T03:29:45;101985.84;;;4.69;81.87
12949;BME280;6539;49.476;8.484;2023-02-15T03:32:15;101991.44;;;4.72;81.80
12949;BME280;6539;49.476;8.484;2023-02-15T03:34:42;101992.38;;;4.76;81.90
12949;BME280;6539;49.476;8.484;2023-02-15T03:40:26;102003.09;;;4.73;81.13
12949;BME280;6539;49.476;8.484;2023-02-15T03:43:34;102000.06;;;4.74;81.25
12949;BME280;6539;49.476;8.484;2023-02-15T03:46:21;101996.50;;;4.82;80.43
12949;BME280;6539;49.476;8.484;2023-02-15T03:49:03;101991.41;;;4.81;80.79
12949;BME280;6539;49.476;8.484;2023-02-15T03:51:37;101995.38;;;4.83;80.73
12949;BME280;6539;49.476;8.484;2023-02-15T03:54:31;101993.44;;;4.84;80.54
12949;BME280;6539;49.476;8.484;2023-02-15T03:57:29;101985.31;;;4.75;80.46
12949;BME280;6539;49.476;8.484;2023-02-15T04:00:19;101988.75;;;4.63;80.57
12949;BME280;6539;49.476;8.484;2023-02-15T04:03:26;101982.47;;;4.72;80.67
12949;BME280;6539;49.476;8.484;2023-02-15T04:05:57;101987.91;;;4.72;81.13
12949;BME280;6539;49.476;8.484;2023-02-15T04:08:23;101974.94;;;4.69;81.02
12949;BME280;6539;49.476;8.484;2023-02-15T04:11:09;101987.44;;;4.70;81.07
12949;BME280;6539;49.476;8.484;2023-02-15T04:13:34;101982.47;;;4.72;81.34
12949;BME280;6539;49.476;8.484;2023-02-15T04:16:05;101978.94;;;4.71;81.25
12949;BME280;6539;49.476;8.484;2023-02-15T04:18:40;101980.41;;;4.69;81.54
12949;BME280;6539;49.476;8.484;2023-02-15T04:21:28;101976.38;;;4.75;81.69
12949;BME280;6539;49.476;8.484;2023-02-15T04:24:14;101980.22;;;4.74;81.08
12949;BME280;6539;49.476;8.484;2023-02-15T04:26:59;101971.38;;;4.77;81.65
12949;BME280;6539;49.476;8.484;2023-02-15T04:29:29;101967.69;;;4.81;81.66
12949;BME280;6539;49.476;8.484;2023-02-15T04:31:57;101970.09;;;4.83;81.82
12949;BME280;6539;49.476;8.484;2023-02-15T04:34:26;101959.94;;;4.92;82.22
12949;BME280;6539;49.476;8.484;2023-02-15T04:36:51;101958.03;;;4.92;81.58
12949;BME280;6539;49.476;8.484;2023-02-15T04:39:19;101959.31;;;4.95;81.83
12949;BME280;6539;49.476;8.484;2023-02-15T04:41:45;101958.19;;;4.96;81.07
12949;BME280;6539;49.476;8.484;2023-02-15T04:44:11;101968.09;;;4.92;81.52
12949;BME280;6539;49.476;8.484;2023-02-15T04:46:39;101961.56;;;4.93;81.78
12949;BME280;6539;49.476;8.484;2023-02-15T04:49:08;101968.09;;;4.92;81.01
12949;BME280;6539;49.476;8.484;2023-02-15T04:51:36;101957.91;;;4.89;81.36
12949;BME280;6539;49.476;8.484;2023-02-15T04:54:04;101956.28;;;4.88;81.99
12949;BME280;6539;49.476;8.484;2023-02-15T04:56:30;101952.16;;;4.82;82.76
12949;BME280;6539;49.476;8.484;2023-02-15T04:58:58;101955.53;;;4.87;82.36
12949;BME280;6539;49.476;8.484;2023-02-15T05:01:24;101955.66;;;4.91;82.74
12949;BME280;6539;49.476;8.484;2023-02-15T05:03:50;101947.31;;;4.96;82.02
12949;BME280;6539;49.476;8.484;2023-02-15T05:06:18;101955.25;;;5.01;81.47
12949;BME280;6539;49.476;8.484;2023-02-15T05:08:44;101946.44;;;4.75;82.31
12949;BME280;6539;49.476;8.484;2023-02-15T05:11:10;101951.06;;;4.83;82.24
12949;BME280;6539;49.476;8.484;2023-02-15T05:13:38;101956.00;;;4.89;82.33
12949;BME280;6539;49.476;8.484;2023-02-15T05:16:04;101953.25;;;4.89;82.54
12949;BME280;6539;49.476;8.484;2023-02-15T05:18:29;101949.88;;;4.92;82.52
12949;BME280;6539;49.476;8.484;2023-02-15T05:20:56;101945.06;;;4.98;82.46
12949;BME280;6539;49.476;8.484;2023-02-15T05:23:24;101953.53;;;4.96;81.82
12949;BME280;6539;49.476;8.484;2023-02-15T05:25:51;101948.66;;;4.81;81.99
12949;BME280;6539;49.476;8.484;2023-02-15T05:28:37;101945.94;;;4.81;82.41
12949;BME280;6539;49.476;8.484;2023-02-15T05:31:19;101953.25;;;4.89;82.43
12949;BME280;6539;49.476;8.484;2023-02-15T05:33:45;101951.66;;;4.88;82.28
12949;BME280;6539;49.476;8.484;2023-02-15T05:36:16;101963.34;;;4.89;82.34
12949;BME280;6539;49.476;8.484;2023-02-15T05:38:42;101966.19;;;4.92;82.02
12949;BME280;6539;49.476;8.484;2023-02-15T05:41:09;101960.66;;;4.80;82.05
12949;BME280;6539;49.476;8.484;2023-02-15T05:43:36;101960.34;;;4.82;82.58
12949;BME280;6539;49.476;8.484;2023-02-15T05:46:05;101963.22;;;4.77;82.37
12949;BME280;6539;49.476;8.484;2023-02-15T05:48:34;101957.47;;;4.78;82.25
12949;BME280;6539;49.476;8.484;2023-02-15T05:51:10;101961.81;;;4.71;82.67
12949;BME280;6539;49.476;8.484;2023-02-15T05:53:40;101955.06;;;4.77;82.92
12949;BME280;6539;49.476;8.484;2023-02-15T05:56:10;101961.03;;;4.70;82.78
12949;BME280;6539;49.476;8.484;2023-02-15T05:58:40;101961.69;;;4.67;82.82
12949;BME280;6539;49.476;8.484;2023-02-15T06:01:18;101954.81;;;4.70;82.52
12949;BME280;6539;49.476;8.484;2023-02-15T06:03:46;101961.53;;;4.72;83.10
12949;BME280;6539;49.476;8.484;2023-02-15T06:06:15;101962.13;;;4.78;83.14
12949;BME280;6539;49.476;8.484;2023-02-15T06:08:43;101961.47;;;4.81;83.37
12949;BME280;6539;49.476;8.484;2023-02-15T06:11:09;101964.88;;;4.69;82.49
12949;BME280;6539;49.476;8.484;2023-02-15T06:13:35;101965.81;;;4.73;82.26
12949;BME280;6539;49.476;8.484;2023-02-15T06:16:01;101965.78;;;4.82;82.60
12949;BME280;6539;49.476;8.484;2023-02-15T06:18:29;101959.69;;;4.85;81.83
12949;BME280;6539;49.476;8.484;2023-02-15T06:20:55;101963.22;;;4.85;81.99
12949;BME280;6539;49.476;8.484;2023-02-15T06:23:20;101966.41;;;4.87;82.37
12949;BME280;6539;49.476;8.484;2023-02-15T06:25:49;101963.06;;;4.82;82.02
12949;BME280;6539;49.476;8.484;2023-02-15T06:28:15;101972.88;;;4.74;82.33
12949;BME280;6539;49.476;8.484;2023-02-15T06:30:43;101977.78;;;4.81;82.55
12949;BME280;6539;49.476;8.484;2023-02-15T06:33:08;101978.78;;;4.76;82.77
12949;BME280;6539;49.476;8.484;2023-02-15T06:35:34;101978.50;;;4.60;83.09
12949;BME280;6539;49.476;8.484;2023-02-15T06:38:05;101988.75;;;4.63;83.14
12949;BME280;6539;49.476;8.484;2023-02-15T06:40:30;101985.25;;;4.54;84.05
12949;BME280;6539;49.476;8.484;2023-02-15T06:43:01;101993.22;;;4.59;83.78
12949;BME280;6539;49.476;8.484;2023-02-15T06:45:29;101996.78;;;4.51;83.89
12949;BME280;6539;49.476;8.484;2023-02-15T06:47:57;101998.84;;;4.54;84.60
12949;BME280;6539;49.476;8.484;2023-02-15T06:50:24;101988.78;;;4.46;84.59
12949;BME280;6539;49.476;8.484;2023-02-15T06:52:55;101993.41;;;4.54;85.37
12949;BME280;6539;49.476;8.484;2023-02-15T06:55:21;101993.69;;;4.61;85.21
12949;BME280;6539;49.476;8.484;2023-02-15T06:57:47;101992.88;;;4.70;84.65
12949;BME280;6539;49.476;8.484;2023-02-15T07:00:13;101998.16;;;4.66;84.22
12949;BME280;6539;49.476;8.484;2023-02-15T07:02:39;101994.69;;;4.57;83.95
12949;BME280;6539;49.476;8.484;2023-02-15T07:05:07;101997.09;;;4.58;84.16
12949;BME280;6539;49.476;8.484;2023-02-15T07:07:33;101992.44;;;4.59;84.50
12949;BME280;6539;49.476;8.484;2023-02-15T07:09:58;101995.34;;;4.54;84.59
12949;BME280;6539;49.476;8.484;2023-02-15T07:12:27;101992.94;;;4.52;85.28
12949;BME280;6539;49.476;8.484;2023-02-15T07:15:18;101990.53;;;4.51;85.60
12949;BME280;6539;49.476;8.484;2023-02-15T07:17:46;101992.94;;;4.52;85.67
12949;BME280;6539;49.476;8.484;2023-02-15T07:20:20;101990.41;;;4.47;85.69
12949;BME280;6539;49.476;8.484;2023-02-15T07:22:49;101992.66;;;4.45;86.14
12949;BME280;6539;49.476;8.484;2023-02-15T07:25:18;102000.31;;;4.43;86.16
12949;BME280;6539;49.476;8.484;2023-02-15T07:27:44;102006.38;;;4.49;86.38
12949;BME280;6539;49.476;8.484;2023-02-15T07:30:14;101994.53;;;4.53;86.30
12949;BME280;6539;49.476;8.484;2023-02-15T07:32:39;101992.28;;;4.55;85.94
12949;BME280;6539;49.476;8.484;2023-02-15T07:35:25;101999.84;;;4.41;85.77
12949;BME280;6539;49.476;8.484;2023-02-15T07:37:56;102005.78;;;4.43;85.34
12949;BME280;6539;49.476;8.484;2023-02-15T07:40:26;101991.84;;;4.45;85.01
12949;BME280;6539;49.476;8.484;2023-02-15T07:42:58;101988.66;;;4.43;85.31
12949;BME280;6539;49.476;8.484;2023-02-15T07:45:26;101988.19;;;4.32;85.22
12949;BME280;6539;49.476;8.484;2023-02-15T07:47:52;101982.91;;;4.36;85.73
12949;BME280;6539;49.476;8.484;2023-02-15T07:50:20;101979.69;;;4.42;84.94
12949;BME280;6539;49.476;8.484;2023-02-15T07:52:46;101985.38;;;4.20;85.89
12949;BME280;6539;49.476;8.484;2023-02-15T07:55:14;101985.38;;;4.20;87.26
12949;BME280;6539;49.476;8.484;2023-02-15T07:57:44;101983.13;;;4.22;87.01
12949;BME280;6539;49.476;8.484;2023-02-15T08:00:14;101993.31;;;4.34;86.42
12949;BME280;6539;49.476;8.484;2023-02-15T08:02:49;101987.72;;;4.30;85.95
12949;BME280;6539;49.476;8.484;2023-02-15T08:05:42;101992.38;;;4.21;87.18
12949;BME280;6539;49.476;8.484;2023-02-15T08:08:12;101994.94;;;4.26;87.54
12949;BME280;6539;49.476;8.484;2023-02-15T08:16:53;101974.13;;;4.30;87.00
12949;BME280;6539;49.476;8.484;2023-02-15T08:19:26;101974.28;;;4.34;85.58
12949;BME280;6539;49.476;8.484;2023-02-15T08:22:07;101974.78;;;4.27;85.62
12949;BME280;6539;49.476;8.484;2023-02-15T08:24:35;101980.41;;;4.14;86.59
12949;BME280;6539;49.476;8.484;2023-02-15T08:27:09;101979.16;;;4.11;86.62
12949;BME280;6539;49.476;8.484;2023-02-15T08:29:37;101974.53;;;4.03;87.25
12949;BME280;6539;49.476;8.484;2023-02-15T08:32:09;101977.06;;;4.08;86.47
12949;BME280;6539;49.476;8.484;2023-02-15T08:34:40;101971.00;;;4.11;86.43
12949;BME280;6539;49.476;8.484;2023-02-15T08:37:09;101971.03;;;3.85;87.25
12949;BME280;6539;49.476;8.484;2023-02-15T08:39:35;101968.94;;;3.91;87.22
12949;BME280;6539;49.476;8.484;2023-02-15T08:42:03;101970.84;;;3.99;86.69
12949;BME280;6539;49.476;8.484;2023-02-15T08:44:31;101971.16;;;4.06;86.19
12949;BME280;6539;49.476;8.484;2023-02-15T08:46:57;101977.72;;;4.05;86.30
12949;BME280;6539;49.476;8.484;2023-02-15T08:49:31;101972.56;;;4.12;85.90
12949;BME280;6539;49.476;8.484;2023-02-15T08:51:57;101969.84;;;4.21;85.63
12949;BME280;6539;49.476;8.484;2023-02-15T08:54:23;101969.19;;;4.32;85.35
12949;BME280;6539;49.476;8.484;2023-02-15T08:56:48;101961.94;;;4.45;84.07
12949;BME280;6539;49.476;8.484;2023-02-15T08:59:21;101968.78;;;4.51;83.91
12949;BME280;6539;49.476;8.484;2023-02-15T09:01:51;101958.38;;;4.53;83.00
12949;BME280;6539;49.476;8.484;2023-02-15T09:04:23;101958.78;;;4.34;83.36
12949;BME280;6539;49.476;8.484;2023-02-15T09:06:52;101961.66;;;4.29;83.55
12949;BME280;6539;49.476;8.484;2023-02-15T09:09:19;101949.34;;;4.32;83.79
12949;BME280;6539;49.476;8.484;2023-02-15T09:11:48;101963.44;;;4.17;84.23
12949;BME280;6539;49.476;8.484;2023-02-15T09:14:20;101955.00;;;4.18;84.07
12949;BME280;6539;49.476;8.484;2023-02-15T09:16:52;101959.00;;;4.04;84.61
12949;BME280;6539;49.476;8.484;2023-02-15T09:19:21;101949.28;;;3.94;85.52
12949;BME280;6539;49.476;8.484;2023-02-15T09:21:47;101951.53;;;3.92;85.16
12949;BME280;6539;49.476;8.484;2023-02-15T09:24:16;101952.97;;;3.90;85.46
12949;BME280;6539;49.476;8.484;2023-02-15T09:26:47;101937.13;;;4.00;85.74
12949;BME280;6539;49.476;8.484;2023-02-15T09:29:15;101945.41;;;4.04;85.33
12949;BME280;6539;49.476;8.484;2023-02-15T09:31:47;101941.63;;;3.96;84.94
12949;BME280;6539;49.476;8.484;2023-02-15T09:34:16;101937.47;;;3.99;83.86
12949;BME280;6539;49.476;8.484;2023-02-15T09:36:43;101933.47;;;3.88;84.13
12949;BME280;6539;49.476;8.484;2023-02-15T09:39:24;101940.34;;;3.85;84.47
12949;BME280;6539;49.476;8.484;2023-02-15T09:47:53;101938.44;;;3.85;83.80
12949;BME280;6539;49.476;8.484;2023-02-15T09:51:09;101945.47;;;3.78;84.17
12949;BME280;6539;49.476;8.484;2023-02-15T09:54:45;101942.91;;;3.81;84.58
12949;BME280;6539;49.476;8.484;2023-02-15T10:00:33;101943.53;;;3.87;85.27
12949;BME280;6539;49.476;8.484;2023-02-15T10:15:06;101953.94;;;3.76;83.33
12949;BME280;6539;49.476;8.484;2023-02-15T10:29:42;101976.28;;;3.65;83.38
12949;BME280;6539;49.476;8.484;2023-02-15T10:32:26;101968.63;;;3.67;83.50
12949;BME280;6539;49.476;8.484;2023-02-15T10:35:01;101967.53;;;3.68;83.30
12949;BME280;6539;49.476;8.484;2023-02-15T10:46:33;101962.56;;;3.70;83.66
12949;BME280;6539;49.476;8.484;2023-02-15T11:06:58;101953.50;;;4.29;81.00
12949;BME280;6539;49.476;8.484;2023-02-15T11:09:36;101956.34;;;4.41;80.55
12949;BME280;6539;49.476;8.484;2023-02-15T11:12:14;101949.69;;;4.30;80.01
12949;BME280;6539;49.476;8.484;2023-02-15T11:17:43;101929.53;;;4.23;81.09
12949;BME280;6539;49.476;8.484;2023-02-15T11:23:17;101916.31;;;4.13;82.06
12949;BME280;6539;49.476;8.484;2023-02-15T11:26:37;101913.72;;;4.16;82.28
12949;BME280;6539;49.476;8.484;2023-02-15T11:32:24;101912.94;;;4.24;80.97
12949;BME280;6539;49.476;8.484;2023-02-15T11:40:27;101910.22;;;4.24;80.37
12949;BME280;6539;49.476;8.484;2023-02-15T11:43:00;101913.41;;;4.26;80.53
12949;BME280;6539;49.476;8.484;2023-02-15T11:45:32;101902.66;;;4.30;80.78
12949;BME280;6539;49.476;8.484;2023-02-15T11:48:00;101903.75;;;4.37;80.61
12949;BME280;6539;49.476;8.484;2023-02-15T11:50:34;101901.13;;;4.49;80.85
12949;BME280;6539;49.476;8.484;2023-02-15T11:53:18;101901.31;;;4.44;80.35
12949;BME280;6539;49.476;8.484;2023-02-15T11:55:47;101899.06;;;4.55;80.30
12949;BME280;6539;49.476;8.484;2023-02-15T11:58:37;101899.34;;;4.53;79.52
12949;BME280;6539;49.476;8.484;2023-02-15T12:01:38;101886.00;;;4.40;80.43
12949;BME280;6539;49.476;8.484;2023-02-15T12:04:35;101883.59;;;4.38;80.10
12949;BME280;6539;49.476;8.484;2023-02-15T12:07:19;101888.38;;;4.41;79.97
12949;BME280;6539;49.476;8.484;2023-02-15T12:10:25;101876.06;;;4.44;80.23
12949;BME280;6539;49.476;8.484;2023-02-15T12:13:18;101875.81;;;4.57;79.61
12949;BME280;6539;49.476;8.484;2023-02-15T12:15:52;101875.00;;;4.66;79.76
12949;BME280;6539;49.476;8.484;2023-02-15T12:21:39;101875.22;;;4.52;80.11
12949;BME280;6539;49.476;8.484;2023-02-15T12:24:30;101863.97;;;4.62;80.28
12949;BME280;6539;49.476;8.484;2023-02-15T12:27:23;101855.44;;;4.72;80.03
12949;BME280;6539;49.476;8.484;2023-02-15T12:29:57;101859.84;;;4.77;79.46
12949;BME280;6539;49.476;8.484;2023-02-15T12:32:36;101852.44;;;4.65;78.82
12949;BME280;6539;49.476;8.484;2023-02-15T12:35:28;101853.88;;;4.62;80.11
12949;BME280;6539;49.476;8.484;2023-02-15T12:40:59;101847.47;;;4.67;80.16
12949;BME280;6539;49.476;8.484;2023-02-15T12:43:35;101850.91;;;4.76;79.40
12949;BME280;6539;49.476;8.484;2023-02-15T12:46:24;101841.91;;;4.84;78.65
12949;BME280;6539;49.476;8.484;2023-02-15T12:51:57;101842.00;;;4.67;79.50
12949;BME280;6539;49.476;8.484;2023-02-15T12:56:58;101838.72;;;4.53;79.77
12949;BME280;6539;49.476;8.484;2023-02-15T12:59:25;101839.53;;;4.53;80.51
12949;BME280;6539;49.476;8.484;2023-02-15T13:01:53;101833.38;;;4.65;80.16
12949;BME280;6539;49.476;8.484;2023-02-15T13:04:26;101834.06;;;4.83;79.68
12949;BME280;6539;49.476;8.484;2023-02-15T13:06:58;101826.63;;;4.92;78.69
12949;BME280;6539;49.476;8.484;2023-02-15T13:09:38;101833.47;;;4.98;78.27
12949;BME280;6539;49.476;8.484;2023-02-15T13:12:27;101828.63;;;5.03;77.70
12949;BME280;6539;49.476;8.484;2023-02-15T13:14:58;101825.56;;;5.05;77.69
12949;BME280;6539;49.476;8.484;2023-02-15T13:17:32;101824.19;;;4.99;78.14
12949;BME280;6539;49.476;8.484;2023-02-15T13:20:30;101819.94;;;5.10;78.14
12949;BME280;6539;49.476;8.484;2023-02-15T13:23:24;101812.28;;;5.24;77.25
12949;BME280;6539;49.476;8.484;2023-02-15T13:26:03;101807.97;;;5.23;76.92
12949;BME280;6539;49.476;8.484;2023-02-15T13:28:49;101804.81;;;5.33;76.87
12949;BME280;6539;49.476;8.484;2023-02-15T13:31:23;101807.59;;;5.45;76.93
12949;BME280;6539;49.476;8.484;2023-02-15T13:34:25;101797.41;;;5.54;75.97
12949;BME280;6539;49.476;8.484;2023-02-15T13:42:41;101782.88;;;5.17;75.83
12949;BME280;6539;49.476;8.484;2023-02-15T13:45:44;101778.66;;;5.20;76.01
12949;BME280;6539;49.476;8.484;2023-02-15T13:55:08;101776.63;;;5.17;77.18
12949;BME280;6539;49.476;8.484;2023-02-15T13:57:46;101775.75;;;5.25;76.45
12949;BME280;6539;49.476;8.484;2023-02-15T14:20:04;101761.78;;;5.26;76.11
12949;BME280;6539;49.476;8.484;2023-02-15T14:31:47;101757.88;;;5.36;76.05
12949;BME280;6539;49.476;8.484;2023-02-15T14:34:36;101755.06;;;5.57;75.31
12949;BME280;6539;49.476;8.484;2023-02-15T14:37:11;101746.22;;;5.48;74.81
12949;BME280;6539;49.476;8.484;2023-02-15T14:46:34;101752.56;;;5.52;74.63
12949;BME280;6539;49.476;8.484;2023-02-15T14:48:53;101741.00;;;5.55;74.54
12949;BME280;6539;49.476;8.484;2023-02-15T14:59:54;101740.31;;;5.58;74.87
12949;BME280;6539;49.476;8.484;2023-02-15T15:02:48;101748.69;;;5.53;75.03
12949;BME280;6539;49.476;8.484;2023-02-15T15:05:48;101736.44;;;5.59;75.40
12949;BME280;6539;49.476;8.484;2023-02-15T15:08:47;101737.59;;;5.70;74.62
12949;BME280;6539;49.476;8.484;2023-02-15T15:11:41;101732.72;;;5.63;74.66
12949;BME280;6539;49.476;8.484;2023-02-15T15:14:36;101731.59;;;5.64;74.92
12949;BME280;6539;49.476;8.484;2023-02-15T15:17:01;101733.50;;;5.64;74.78
12949;BME280;6539;49.476;8.484;2023-02-15T15:20:02;101717.16;;;5.52;74.55
12949;BME280;6539;49.476;8.484;2023-02-15T15:22:33;101731.34;;;5.57;74.95
12949;BME280;6539;49.476;8.484;2023-02-15T15:25:10;101727.81;;;5.57;75.35
12949;BME280;6539;49.476;8.484;2023-02-15T15:27:50;101730.78;;;5.52;74.69
12949;BME280;6539;49.476;8.484;2023-02-15T15:50:00;101738.97;;;5.52;75.36
12949;BME280;6539;49.476;8.484;2023-02-15T15:52:28;101742.13;;;5.54;74.96
12949;BME280;6539;49.476;8.484;2023-02-15T15:55:14;101743.50;;;5.60;75.29
12949;BME280;6539;49.476;8.484;2023-02-15T15:57:49;101751.09;;;5.54;74.88
12949;BME280;6539;49.476;8.484;2023-02-15T16:00:51;101741.00;;;5.55;74.97
12949;BME280;6539;49.476;8.484;2023-02-15T16:03:26;101742.69;;;5.47;74.69
12949;BME280;6539;49.476;8.484;2023-02-15T16:05:57;101742.34;;;5.49;75.17
12949;BME280;6539;49.476;8.484;2023-02-15T16:08:45;101747.00;;;5.48;75.46
12949;BME280;6539;49.476;8.484;2023-02-15T16:11:21;101742.69;;;5.47;75.13
12949;BME280;6539;49.476;8.484;2023-02-15T16:13:53;101744.25;;;5.48;75.32
12949;BME280;6539;49.476;8.484;2023-02-15T16:16:28;101739.72;;;5.40;74.91
12949;BME280;6539;49.476;8.484;2023-02-15T16:18:58;101745.97;;;5.40;75.15
12949;BME280;6539;49.476;8.484;2023-02-15T16:21:32;101741.06;;;5.34;75.41
12949;BME280;6539;49.476;8.484;2023-02-15T16:29:34;101739.72;;;5.40;75.70
12949;BME280;6539;49.476;8.484;2023-02-15T16:32:04;101746.63;;;5.37;75.65
12949;BME280;6539;49.476;8.484;2023-02-15T16:34:32;101746.06;;;5.32;75.76
12949;BME280;6539;49.476;8.484;2023-02-15T16:37:34;101747.88;;;5.28;76.36
12949;BME280;6539;49.476;8.484;2023-02-15T16:40:03;101745.38;;;5.35;76.66
12949;BME280;6539;49.476;8.484;2023-02-15T16:42:28;101740.38;;;5.37;76.69
12949;BME280;6539;49.476;8.484;2023-02-15T16:47:43;101741.53;;;5.36;76.42
12949;BME280;6539;49.476;8.484;2023-02-15T16:50:46;101747.63;;;5.33;76.53
12949;BME280;6539;49.476;8.484;2023-02-15T16:53:20;101747.34;;;5.14;76.46
12949;BME280;6539;49.476;8.484;2023-02-15T16:56:04;101752.13;;;5.17;77.51
12949;BME280;6539;49.476;8.484;2023-02-15T16:58:43;101748.28;;;5.18;77.17
12949;BME280;6539;49.476;8.484;2023-02-15T17:01:15;101754.41;;;5.15;77.25
12949;BME280;6539;49.476;8.484;2023-02-15T17:03:41;101745.22;;;5.19;77.10
12949;BME280;6539;49.476;8.484;2023-02-15T17:06:27;101751.88;;;5.10;77.25